Check out our new BloomSky Weather System.

Active alerts

Galveston, TX
  Details for Galveston, TX Rip Current Statement


Thunder radar  blitzortung!


Rain radar more information rain snow radar


Visit our other weather sites:

Template documentation
and downloads

And another site



Weather Underground History page Text

Daily Summary for January 16, 2017 Units:  English    Metric   Both
« Previous Day
Next Day »
Daily Weekly Monthly Yearly Custom
  High: Low: Average:
Temperature: TemperatureF °F 67.6 °F 72 °F
Dew Point: DewpointF °F 64.8 °F 67.5 °F
Humidity: Humidity % 62 % 86 %
Wind Speed: WindSpeedMPH mph 0.0 mph 4.7 mph
Wind Gust: WindSpeedGustMPH mph - -
Wind:- - SSE
Pressure: PressureIn in 29.92 in -
Precipitation: 0.64 in    
Historical Graphs
 
 
Tabular Data for January 16, 2017
Time Temperature Dew Point Pressure Wind Wind Speed Wind Gust Humidity Rainfall Rate (Hourly)
TemperatureF °F DewpointF °F PressureIn in Calm     Humidity % HourlyPrecipIn in
00:03 68.2 °F 66.0 °F 29.94 in ESE 6.0 mph 12.0 mph 93 % 0.00 in
00:08 68.2 °F 66.0 °F 29.94 in SE 9.0 mph 12.0 mph 93 % 0.00 in
00:13 68.2 °F 66.0 °F 29.93 in SE 9.0 mph 14.0 mph 93 % 0.00 in
00:18 68.4 °F 66.2 °F 29.93 in SE 4.0 mph 14.0 mph 93 % 0.00 in
00:23 68.4 °F 66.2 °F 29.93 in SE 8.0 mph 14.0 mph 93 % 0.00 in
00:28 68.4 °F 66.2 °F 29.92 in East 5.0 mph 13.0 mph 93 % 0.00 in
00:33 68.4 °F 66.2 °F 29.92 in South 5.0 mph 12.0 mph 93 % 0.00 in
00:38 68.4 °F 66.2 °F 29.92 in SE 5.0 mph 12.0 mph 93 % 0.00 in
00:43 68.4 °F 66.2 °F 29.92 in ESE 3.0 mph 14.0 mph 93 % 0.00 in
00:48 68.4 °F 66.2 °F 29.93 in East 10.0 mph 14.0 mph 93 % 0.00 in
00:53 68.4 °F 66.2 °F 29.93 in South 6.0 mph 14.0 mph 93 % 0.00 in
00:58 68.5 °F 66.4 °F 29.94 in ESE 3.0 mph 11.0 mph 93 % 0.00 in
01:03 68.5 °F 66.4 °F 29.94 in East 4.0 mph 11.0 mph 93 % 0.00 in
01:08 68.5 °F 66.4 °F 29.94 in SE 4.0 mph 10.0 mph 93 % 0.00 in
01:13 68.5 °F 66.4 °F 29.94 in SE 7.0 mph 9.0 mph 93 % 0.00 in
01:18 68.5 °F 66.4 °F 29.94 in SE 8.0 mph 10.0 mph 93 % 0.00 in
01:23 68.5 °F 66.4 °F 29.94 in ESE 4.0 mph 11.0 mph 93 % 0.00 in
01:28 68.5 °F 66.4 °F 29.94 in SE 5.0 mph 11.0 mph 93 % 0.00 in
01:34 68.5 °F 66.4 °F 29.94 in SE 5.0 mph 11.0 mph 93 % 0.00 in
01:39 68.7 °F 66.6 °F 29.94 in ESE 6.0 mph 11.0 mph 93 % 0.00 in
01:44 68.7 °F 66.6 °F 29.94 in ESE 5.0 mph 9.0 mph 93 % 0.00 in
01:49 68.7 °F 66.6 °F 29.94 in East 4.0 mph 8.0 mph 93 % 0.00 in
01:54 68.7 °F 66.6 °F 29.94 in SE 2.0 mph 8.0 mph 93 % 0.00 in
01:59 68.7 °F 66.6 °F 29.94 in ESE 3.0 mph 7.0 mph 93 % 0.00 in
02:04 68.7 °F 66.6 °F 29.94 in Calm   6.0 mph 93 % 0.00 in
02:09 68.7 °F 66.6 °F 29.94 in SE 2.0 mph 6.0 mph 93 % 0.00 in
02:14 68.5 °F 66.4 °F 29.94 in ESE 4.0 mph 7.0 mph 93 % 0.00 in
02:19 68.7 °F 66.6 °F 29.94 in SE 4.0 mph 7.0 mph 93 % 0.00 in
02:24 68.7 °F 66.6 °F 29.94 in ENE 5.0 mph 9.0 mph 93 % 0.00 in
02:29 68.7 °F 66.6 °F 29.94 in SE 2.0 mph 9.0 mph 93 % 0.00 in
02:34 68.7 °F 66.6 °F 29.94 in East 3.0 mph 9.0 mph 93 % 0.00 in
02:39 68.7 °F 66.6 °F 29.94 in East 4.0 mph 9.0 mph 93 % 0.00 in
02:44 68.5 °F 66.4 °F 29.94 in ESE 4.0 mph 9.0 mph 93 % 0.00 in
02:49 68.5 °F 66.4 °F 29.94 in ESE 3.0 mph 9.0 mph 93 % 0.00 in
02:54 68.5 °F 66.4 °F 29.95 in SSW 2.0 mph 7.0 mph 93 % 0.00 in
02:59 68.5 °F 66.4 °F 29.95 in South 2.0 mph 6.0 mph 93 % 0.00 in
03:04 68.5 °F 66.4 °F 29.95 in ESE 3.0 mph 5.0 mph 93 % 0.00 in
03:09 68.4 °F 66.2 °F 29.95 in SE 2.0 mph 5.0 mph 93 % 0.00 in
03:14 68.4 °F 66.6 °F 29.95 in ESE 3.0 mph 4.0 mph 94 % 0.00 in
03:19 68.4 °F 66.6 °F 29.95 in East 4.0 mph 6.0 mph 94 % 0.00 in
03:24 68.4 °F 66.6 °F 29.95 in SE 1.0 mph 6.0 mph 94 % 0.00 in
03:29 68.4 °F 66.6 °F 29.95 in ESE 1.0 mph 6.0 mph 94 % 0.00 in
03:34 68.4 °F 66.6 °F 29.95 in ESE 1.0 mph 5.0 mph 94 % 0.00 in
03:39 68.4 °F 66.6 °F 29.95 in ESE 1.0 mph 5.0 mph 94 % 0.00 in
03:44 68.4 °F 66.6 °F 29.95 in SE 1.0 mph 4.0 mph 94 % 0.00 in
03:49 68.2 °F 66.4 °F 29.95 in ESE 1.0 mph 4.0 mph 94 % 0.00 in
03:54 68.2 °F 66.4 °F 29.94 in East 3.0 mph 4.0 mph 94 % 0.00 in
03:59 68.2 °F 66.4 °F 29.95 in South 3.0 mph 4.0 mph 94 % 0.00 in
04:04 68.2 °F 66.4 °F 29.95 in East 4.0 mph 5.0 mph 94 % 0.00 in
04:09 68.2 °F 66.4 °F 29.95 in ESE 3.0 mph 6.0 mph 94 % 0.00 in
04:14 68.2 °F 66.4 °F 29.95 in ESE 2.0 mph 6.0 mph 94 % 0.00 in
04:19 68.2 °F 66.4 °F 29.94 in East 3.0 mph 6.0 mph 94 % 0.00 in
04:24 68.2 °F 66.7 °F 29.94 in ESE 6.0 mph 7.0 mph 95 % 0.00 in
04:29 68.2 °F 66.7 °F 29.94 in ESE 3.0 mph 11.0 mph 95 % 0.00 in
04:34 68.2 °F 66.7 °F 29.95 in SE 3.0 mph 11.0 mph 95 % 0.00 in
04:39 68.2 °F 66.7 °F 29.95 in South 5.0 mph 11.0 mph 95 % 0.00 in
04:44 68.2 °F 66.7 °F 29.95 in ESE 3.0 mph 15.0 mph 95 % 0.00 in
04:49 68.2 °F 66.7 °F 29.94 in SSE 4.0 mph 15.0 mph 95 % 0.00 in
04:54 68.2 °F 66.7 °F 29.94 in SSE 3.0 mph 15.0 mph 95 % 0.01 in
04:59 68.2 °F 66.7 °F 29.95 in SE 3.0 mph 8.0 mph 95 % 0.02 in
05:04 67.8 °F 66.4 °F 29.94 in East 3.0 mph 8.0 mph 95 % 0.02 in
05:09 67.8 °F 66.6 °F 29.94 in SE 2.0 mph 8.0 mph 96 % 0.02 in
05:14 67.6 °F 66.4 °F 29.94 in ENE 2.0 mph 7.0 mph 96 % 0.03 in
05:19 67.6 °F 66.4 °F 29.93 in ESE 6.0 mph 6.0 mph 96 % 0.03 in
05:24 67.6 °F 66.4 °F 29.93 in ESE 2.0 mph 9.0 mph 96 % 0.03 in
05:29 67.6 °F 66.4 °F 29.94 in East 4.0 mph 9.0 mph 96 % 0.03 in
05:34 67.6 °F 66.4 °F 29.94 in SSE 2.0 mph 9.0 mph 96 % 0.03 in
05:39 67.6 °F 66.7 °F 29.93 in SSE 4.0 mph 9.0 mph 97 % 0.03 in
05:44 67.6 °F 66.7 °F 29.94 in SE 3.0 mph 7.0 mph 97 % 0.03 in
05:49 67.6 °F 66.7 °F 29.93 in East 6.0 mph 10.0 mph 97 % 0.03 in
05:54 67.8 °F 66.9 °F 29.94 in ESE 2.0 mph 10.0 mph 97 % 0.03 in
05:59 67.8 °F 66.9 °F 29.94 in SE 2.0 mph 10.0 mph 97 % 0.02 in
06:04 67.8 °F 66.9 °F 29.94 in SSE 4.0 mph 9.0 mph 97 % 0.02 in
06:09 67.8 °F 66.9 °F 29.94 in SE 6.0 mph 9.0 mph 97 % 0.01 in
06:14 67.8 °F 66.9 °F 29.94 in SE 5.0 mph 9.0 mph 97 % 0.01 in
06:19 67.8 °F 66.9 °F 29.94 in SE 3.0 mph 9.0 mph 97 % 0.02 in
06:24 67.8 °F 66.9 °F 29.94 in SSE 2.0 mph 8.0 mph 97 % 0.03 in
06:29 67.8 °F 66.9 °F 29.94 in SE 2.0 mph 8.0 mph 97 % 0.04 in
06:35 68.0 °F 67.1 °F 29.95 in SSE 1.0 mph 8.0 mph 97 % 0.04 in
06:40 68.0 °F 67.5 °F 29.95 in SE 2.0 mph 6.0 mph 98 % 0.05 in
06:45 68.2 °F 67.6 °F 29.95 in East 4.0 mph 6.0 mph 98 % 0.05 in
06:50 68.2 °F 67.6 °F 29.95 in SE 3.0 mph 7.0 mph 98 % 0.05 in
06:55 68.4 °F 67.8 °F 29.95 in South 1.0 mph 7.0 mph 98 % 0.06 in
07:00 68.4 °F 67.8 °F 29.96 in SE 2.0 mph 7.0 mph 98 % 0.10 in
07:05 68.5 °F 68.0 °F 29.96 in SE 2.0 mph 7.0 mph 98 % 0.10 in
07:10 68.5 °F 68.0 °F 29.96 in Calm   4.0 mph 98 % 0.10 in
07:15 68.5 °F 68.0 °F 29.96 in SSW 3.0 mph 4.0 mph 98 % 0.10 in
07:20 68.5 °F 68.0 °F 29.96 in SE 5.0 mph 5.0 mph 98 % 0.10 in
07:25 68.5 °F 68.0 °F 29.96 in South 4.0 mph 6.0 mph 98 % 0.08 in
07:30 68.7 °F 68.2 °F 29.96 in SE 3.0 mph 7.0 mph 98 % 0.09 in
07:35 68.7 °F 68.2 °F 29.96 in SE 3.0 mph 7.0 mph 98 % 0.15 in
07:40 68.7 °F 68.2 °F 29.96 in East 5.0 mph 8.0 mph 98 % 0.24 in
07:45 68.5 °F 68.0 °F 29.96 in Calm   9.0 mph 98 % 0.28 in
07:50 68.5 °F 68.0 °F 29.96 in SSW 1.0 mph 9.0 mph 98 % 0.33 in
07:55 68.5 °F 68.0 °F 29.97 in SW 5.0 mph 9.0 mph 98 % 0.46 in
08:00 68.2 °F 67.3 °F 29.97 in Calm   12.0 mph 97 % 0.45 in
08:05 68.0 °F 67.1 °F 29.96 in SSW 3.0 mph 12.0 mph 97 % 0.47 in
08:10 68.2 °F 67.6 °F 29.96 in SSW 3.0 mph 12.0 mph 98 % 0.47 in
08:15 68.5 °F 68.0 °F 29.96 in South 3.0 mph 9.0 mph 98 % 0.47 in
08:20 68.7 °F 68.2 °F 29.96 in Calm   9.0 mph 98 % 0.47 in
08:25 68.9 °F 68.4 °F 29.97 in SSE 3.0 mph 6.0 mph 98 % 0.47 in
08:30 69.1 °F 68.5 °F 29.98 in South 2.0 mph 5.0 mph 98 % 0.46 in
08:35 69.1 °F 68.5 °F 29.97 in SSW 5.0 mph 6.0 mph 98 % 0.39 in
08:40 69.3 °F 68.7 °F 29.97 in South 5.0 mph 8.0 mph 98 % 0.29 in
08:45 69.4 °F 68.9 °F 29.97 in SSE 6.0 mph 8.0 mph 98 % 0.25 in
08:50 69.4 °F 68.9 °F 29.97 in SE 6.0 mph 14.0 mph 98 % 0.19 in
08:55 69.6 °F 68.7 °F 29.97 in SE 8.0 mph 14.0 mph 97 % 0.03 in
09:00 70.0 °F 69.1 °F 29.98 in SE 4.0 mph 14.0 mph 97 % 0.02 in
09:05 70.0 °F 69.1 °F 29.98 in SSE 6.0 mph 11.0 mph 97 % 0.02 in
09:07 70.0 °F 69.1 °F 29.98 in SSE 3.0 mph 11.0 mph 97 % 0.02 in
09:12 70.2 °F 69.3 °F 29.98 in SSW 3.0 mph 11.0 mph 97 % 0.02 in
09:17 70.2 °F 69.3 °F 29.98 in SSW 6.0 mph 10.0 mph 97 % 0.02 in
09:22 70.3 °F 69.4 °F 29.99 in SSE 7.0 mph 10.0 mph 97 % 0.02 in
09:27 70.5 °F 69.6 °F 29.99 in South 4.0 mph 10.0 mph 97 % 0.02 in
09:32 70.7 °F 69.4 °F 29.99 in SSE 4.0 mph 10.0 mph 96 % 0.02 in
09:37 70.9 °F 69.6 °F 29.99 in SSW 6.0 mph 14.0 mph 96 % 0.02 in
09:42 71.2 °F 69.8 °F 29.99 in SE 9.0 mph 14.0 mph 95 % 0.02 in
09:47 71.4 °F 69.6 °F 29.99 in SSE 4.0 mph 14.0 mph 94 % 0.02 in
09:52 71.8 °F 70.0 °F 29.99 in South 3.0 mph 14.0 mph 94 % 0.02 in
10:01 73.0 °F 71.2 °F 29.99 in SSW 8.0 mph 12.0 mph 94 % 0.01 in
10:06 73.6 °F 70.5 °F 29.99 in South 5.0 mph 15.0 mph 90 % 0.01 in
10:12 74.1 °F 70.7 °F 29.99 in SSE 2.0 mph 16.0 mph 89 % 0.00 in
10:17 74.3 °F 69.8 °F 30.00 in South 10.0 mph 16.0 mph 86 % 0.00 in
10:25 74.5 °F 69.6 °F 30.00 in South 7.0 mph 16.0 mph 85 % 0.00 in
10:31 74.7 °F 69.8 °F 30.00 in South 3.0 mph 14.0 mph 85 % 0.00 in
10:51 75.7 °F 68.0 °F 29.99 in ESE 9.0 mph 18.0 mph 77 % 0.00 in
10:54 75.9 °F 68.2 °F 30.00 in SSE 8.0 mph 18.0 mph 77 % 0.00 in
10:59 75.9 °F 67.8 °F 30.00 in SSE 12.0 mph 18.0 mph 76 % 0.00 in
11:04 76.1 °F 67.6 °F 29.99 in South 9.0 mph 18.0 mph 75 % 0.00 in
11:18 77.2 °F 68.7 °F 29.99 in SSE 6.0 mph 17.0 mph 75 % 0.00 in
11:23 77.5 °F 67.8 °F 29.99 in South 13.0 mph 15.0 mph 72 % 0.00 in
11:26 77.7 °F 67.6 °F 29.99 in SSE 9.0 mph 15.0 mph 71 % 0.00 in
11:30 77.9 °F 67.3 °F 29.99 in SSE 9.0 mph 15.0 mph 70 % 0.00 in
11:32 78.1 °F 67.8 °F 29.99 in South 7.0 mph 17.0 mph 71 % 0.00 in
11:37 78.4 °F 67.5 °F 29.99 in South 11.0 mph 17.0 mph 69 % 0.00 in
11:42 78.4 °F 67.5 °F 29.98 in South 8.0 mph 18.0 mph 69 % 0.00 in
11:56 79.2 °F 68.2 °F 29.97 in SSW 10.0 mph 17.0 mph 69 % 0.00 in
11:59 79.2 °F 67.3 °F 29.97 in SSE 8.0 mph 17.0 mph 67 % 0.00 in
12:18 79.2 °F 67.6 °F 29.96 in SSW 4.0 mph 19.0 mph 68 % 0.00 in
12:20 79.2 °F 67.6 °F 29.96 in SSE 7.0 mph 19.0 mph 68 % 0.00 in
12:36 79.3 °F 67.5 °F 29.95 in SSE 9.0 mph 18.0 mph 67 % 0.00 in
12:43 79.0 °F 66.2 °F 29.94 in SSW 7.0 mph 18.0 mph 65 % 0.00 in
12:46 79.0 °F 67.1 °F 29.95 in South 9.0 mph 17.0 mph 67 % 0.00 in
12:47 79.0 °F 67.1 °F 29.95 in SE 4.0 mph 17.0 mph 67 % 0.00 in
12:57 78.6 °F 66.7 °F 29.94 in SE 11.0 mph 13.0 mph 67 % 0.00 in
12:58 78.6 °F 66.7 °F 29.94 in SE 6.0 mph 13.0 mph 67 % 0.00 in
13:02 78.6 °F 66.4 °F 29.94 in SSE 5.0 mph 14.0 mph 66 % 0.00 in
13:13 79.2 °F 66.4 °F 29.94 in SW 6.0 mph 17.0 mph 65 % 0.00 in
13:17 79.2 °F 66.7 °F 29.94 in SSE 5.0 mph 17.0 mph 66 % 0.00 in
14:03 79.7 °F 65.5 °F 29.92 in SSE 10.0 mph 18.0 mph 62 % 0.00 in
14:05 79.5 °F 65.3 °F 29.92 in South 9.0 mph 18.0 mph 62 % 0.00 in
14:13 79.5 °F 65.8 °F 29.92 in South 5.0 mph 15.0 mph 63 % 0.00 in
14:26 79.5 °F 65.3 °F 29.92 in SSE 11.0 mph 17.0 mph 62 % 0.00 in
14:33 79.0 °F 64.8 °F 29.93 in SE 10.0 mph 17.0 mph 62 % 0.00 in
14:37 78.8 °F 65.1 °F 29.93 in South 10.0 mph 16.0 mph 63 % 0.00 in
14:43 78.6 °F 64.9 °F 29.92 in SSE 8.0 mph 16.0 mph 63 % 0.00 in
14:46 78.6 °F 65.8 °F 29.92 in SSE 7.0 mph 16.0 mph 65 % 0.00 in
14:56 78.3 °F 66.7 °F 29.92 in ESE 10.0 mph 15.0 mph 68 % 0.00 in
15:03 77.7 °F 66.7 °F 29.93 in SSW 11.0 mph 16.0 mph 69 % 0.00 in
15:10 77.5 °F 66.9 °F 29.93 in SE 7.0 mph 16.0 mph 70 % 0.00 in
15:14 77.5 °F 67.5 °F 29.93 in SSE 7.0 mph 16.0 mph 71 % 0.00 in
15:20 77.5 °F 67.5 °F 29.93 in SE 10.0 mph 15.0 mph 71 % 0.00 in
15:22 77.5 °F 67.5 °F 29.92 in SW 7.0 mph 16.0 mph 71 % 0.00 in
15:28 77.9 °F 67.8 °F 29.92 in SSE 3.0 mph 16.0 mph 71 % 0.00 in
15:29 77.9 °F 67.8 °F 29.93 in South 5.0 mph 16.0 mph 71 % 0.00 in
15:30 78.1 °F 67.8 °F 29.92 in SSE 6.0 mph 16.0 mph 71 % 0.00 in
15:31 78.1 °F 67.5 °F 29.93 in SSE 9.0 mph 16.0 mph 70 % 0.00 in
15:37 78.1 °F 67.5 °F 29.92 in South 7.0 mph 16.0 mph 70 % 0.00 in
15:39 78.1 °F 67.5 °F 29.93 in East 8.0 mph 16.0 mph 70 % 0.00 in
15:42 77.9 °F 67.3 °F 29.93 in SE 5.0 mph 16.0 mph 70 % 0.00 in
15:47 77.7 °F 67.6 °F 29.93 in SSE 7.0 mph 16.0 mph 71 % 0.00 in
15:52 77.4 °F 67.3 °F 29.93 in SE 8.0 mph 15.0 mph 71 % 0.00 in
15:57 77.4 °F 67.3 °F 29.93 in South 9.0 mph 15.0 mph 71 % 0.00 in
16:02 77.5 °F 67.5 °F 29.93 in SSE 6.0 mph 15.0 mph 71 % 0.00 in
16:07 77.5 °F 67.5 °F 29.93 in SE 12.0 mph 15.0 mph 71 % 0.00 in
16:12 77.4 °F 67.3 °F 29.94 in SSE 7.0 mph 14.0 mph 71 % 0.00 in
16:17 77.4 °F 67.3 °F 29.94 in South 5.0 mph 15.0 mph 71 % 0.00 in
16:22 77.4 °F 67.6 °F 29.94 in SSE 6.0 mph 15.0 mph 72 % 0.00 in
16:27 77.4 °F 67.3 °F 29.94 in SSE 4.0 mph 15.0 mph 71 % 0.00 in
16:32 77.2 °F 67.1 °F 29.94 in SE 5.0 mph 15.0 mph 71 % 0.00 in
16:37 77.2 °F 67.1 °F 29.94 in SW 8.0 mph 15.0 mph 71 % 0.00 in
16:42 77.0 °F 66.9 °F 29.94 in SSE 9.0 mph 12.0 mph 71 % 0.00 in
16:47 76.8 °F 66.7 °F 29.94 in South 6.0 mph 12.0 mph 71 % 0.00 in
16:52 76.8 °F 66.7 °F 29.94 in SE 4.0 mph 12.0 mph 71 % 0.00 in
16:57 76.6 °F 66.6 °F 29.95 in ESE 4.0 mph 12.0 mph 71 % 0.00 in
17:02 76.6 °F 66.6 °F 29.94 in South 4.0 mph 11.0 mph 71 % 0.00 in
17:07 76.5 °F 66.4 °F 29.94 in SSE 10.0 mph 11.0 mph 71 % 0.00 in
17:12 76.5 °F 66.4 °F 29.95 in SE 5.0 mph 12.0 mph 71 % 0.00 in
17:17 76.5 °F 66.4 °F 29.95 in SE 7.0 mph 12.0 mph 71 % 0.00 in
17:22 76.5 °F 66.7 °F 29.95 in SSW 5.0 mph 12.0 mph 72 % 0.00 in
17:27 76.3 °F 66.6 °F 29.95 in ESE 9.0 mph 13.0 mph 72 % 0.00 in
17:32 76.1 °F 66.4 °F 29.96 in SE 5.0 mph 13.0 mph 72 % 0.00 in
17:37 75.9 °F 66.6 °F 29.96 in SSW 2.0 mph 13.0 mph 73 % 0.00 in
17:42 75.7 °F 66.9 °F 29.96 in South 9.0 mph 12.0 mph 74 % 0.00 in
17:47 75.6 °F 66.7 °F 29.96 in ESE 4.0 mph 12.0 mph 74 % 0.00 in
17:52 75.4 °F 66.9 °F 29.96 in South 4.0 mph 11.0 mph 75 % 0.00 in
17:57 75.0 °F 66.6 °F 29.96 in South 2.0 mph 9.0 mph 75 % 0.00 in
18:02 74.8 °F 66.7 °F 29.96 in SSE 2.0 mph 8.0 mph 76 % 0.00 in
18:07 74.8 °F 67.1 °F 29.96 in SE 4.0 mph 7.0 mph 77 % 0.00 in
18:12 74.8 °F 67.5 °F 29.96 in SE 5.0 mph 9.0 mph 78 % 0.00 in
18:17 74.7 °F 67.6 °F 29.97 in SE 5.0 mph 9.0 mph 79 % 0.00 in
18:22 74.7 °F 67.6 °F 29.97 in South 3.0 mph 9.0 mph 79 % 0.00 in
18:27 74.5 °F 67.8 °F 29.97 in SE 3.0 mph 9.0 mph 80 % 0.00 in
18:32 74.5 °F 67.8 °F 29.97 in SSW 4.0 mph 8.0 mph 80 % 0.00 in
18:37 74.5 °F 68.2 °F 29.96 in SE 6.0 mph 8.0 mph 81 % 0.00 in
18:42 74.1 °F 68.0 °F 29.97 in South 7.0 mph 8.0 mph 81 % 0.00 in
18:47 74.1 °F 68.0 °F 29.97 in ESE 6.0 mph 12.0 mph 81 % 0.00 in
18:52 73.9 °F 68.2 °F 29.97 in ESE 4.0 mph 12.0 mph 82 % 0.00 in
18:57 73.9 °F 68.2 °F 29.98 in SE 5.0 mph 12.0 mph 82 % 0.00 in
19:02 73.8 °F 68.4 °F 29.98 in SE 2.0 mph 8.0 mph 83 % 0.00 in
19:07 73.8 °F 68.4 °F 29.98 in South 4.0 mph 8.0 mph 83 % 0.00 in
19:12 73.6 °F 68.2 °F 29.98 in SSE 5.0 mph 9.0 mph 83 % 0.00 in
19:17 73.6 °F 68.4 °F 29.98 in SSE 1.0 mph 9.0 mph 84 % 0.00 in
19:22 73.6 °F 68.4 °F 29.98 in SSE 3.0 mph 9.0 mph 84 % 0.00 in
19:28 73.4 °F 68.5 °F 29.98 in SSE 8.0 mph 8.0 mph 85 % 0.00 in
19:33 73.2 °F 68.4 °F 29.98 in South 3.0 mph 10.0 mph 85 % 0.00 in
19:38 73.2 °F 68.7 °F 29.98 in SSE 2.0 mph 10.0 mph 86 % 0.00 in
19:43 73.0 °F 68.5 °F 29.98 in SW 1.0 mph 10.0 mph 86 % 0.00 in
19:48 72.9 °F 68.4 °F 29.98 in SE 3.0 mph 8.0 mph 86 % 0.00 in
19:53 72.9 °F 68.7 °F 29.98 in SE 2.0 mph 7.0 mph 87 % 0.00 in
19:58 72.9 °F 68.7 °F 29.98 in SE 3.0 mph 7.0 mph 87 % 0.00 in
20:03 72.9 °F 68.7 °F 29.99 in South 2.0 mph 7.0 mph 87 % 0.00 in
20:08 72.9 °F 68.7 °F 29.99 in SSE 5.0 mph 7.0 mph 87 % 0.00 in
20:13 72.9 °F 69.1 °F 29.99 in SSE 5.0 mph 7.0 mph 88 % 0.00 in
20:18 72.9 °F 69.1 °F 29.99 in SE 6.0 mph 7.0 mph 88 % 0.00 in
20:23 72.7 °F 68.9 °F 29.99 in SE 4.0 mph 8.0 mph 88 % 0.00 in
20:28 72.7 °F 68.9 °F 29.99 in SE 4.0 mph 11.0 mph 88 % 0.00 in
20:33 72.7 °F 69.3 °F 29.99 in SSE 6.0 mph 11.0 mph 89 % 0.00 in
20:38 72.7 °F 69.3 °F 29.99 in South 4.0 mph 11.0 mph 89 % 0.00 in
20:43 72.7 °F 69.3 °F 29.99 in SE 2.0 mph 9.0 mph 89 % 0.00 in
20:48 72.5 °F 69.1 °F 29.99 in ESE 5.0 mph 9.0 mph 89 % 0.00 in
20:53 72.5 °F 69.1 °F 29.99 in ESE 4.0 mph 8.0 mph 89 % 0.00 in
20:58 72.3 °F 69.3 °F 29.99 in SSE 2.0 mph 6.0 mph 90 % 0.00 in
21:03 72.3 °F 69.3 °F 29.99 in SE 2.0 mph 6.0 mph 90 % 0.00 in
21:08 72.3 °F 69.3 °F 29.99 in SSE 7.0 mph 7.0 mph 90 % 0.00 in
21:13 72.3 °F 69.3 °F 29.99 in South 3.0 mph 10.0 mph 90 % 0.00 in
21:18 72.3 °F 69.3 °F 29.99 in SSE 2.0 mph 10.0 mph 90 % 0.00 in
21:23 72.3 °F 69.6 °F 29.99 in SSE 3.0 mph 10.0 mph 91 % 0.00 in
21:28 72.3 °F 69.6 °F 29.99 in SSE 4.0 mph 9.0 mph 91 % 0.00 in
21:33 72.3 °F 69.6 °F 29.99 in SE 6.0 mph 9.0 mph 91 % 0.00 in
21:38 72.3 °F 69.6 °F 29.99 in SE 7.0 mph 9.0 mph 91 % 0.00 in
21:43 72.3 °F 69.8 °F 29.99 in SSW 3.0 mph 9.0 mph 92 % 0.00 in
21:48 72.3 °F 69.8 °F 29.99 in SSE 4.0 mph 10.0 mph 92 % 0.00 in
21:53 72.3 °F 69.8 °F 29.99 in ESE 7.0 mph 10.0 mph 92 % 0.00 in
21:58 72.3 °F 69.8 °F 29.99 in SE 4.0 mph 10.0 mph 92 % 0.00 in
22:03 72.3 °F 69.8 °F 29.99 in SSE 4.0 mph 9.0 mph 92 % 0.00 in
22:08 72.3 °F 69.8 °F 29.99 in ESE 4.0 mph 9.0 mph 92 % 0.00 in
22:13 72.3 °F 69.8 °F 29.99 in SSE 1.0 mph 8.0 mph 92 % 0.00 in
22:18 72.3 °F 70.2 °F 29.99 in South 4.0 mph 7.0 mph 93 % 0.00 in
22:23 72.1 °F 70.0 °F 30.00 in SE 2.0 mph 8.0 mph 93 % 0.00 in
22:28 72.1 °F 70.0 °F 30.00 in SSE 6.0 mph 10.0 mph 93 % 0.00 in
22:33 72.1 °F 70.0 °F 30.00 in SE 5.0 mph 10.0 mph 93 % 0.00 in
22:38 72.1 °F 70.0 °F 30.00 in SE 5.0 mph 10.0 mph 93 % 0.00 in
22:43 72.1 °F 70.0 °F 30.00 in SSE 4.0 mph 8.0 mph 93 % 0.00 in
22:48 72.1 °F 70.0 °F 30.00 in South 4.0 mph 10.0 mph 93 % 0.00 in
22:53 72.1 °F 70.0 °F 30.00 in SSE 3.0 mph 10.0 mph 93 % 0.00 in
22:58 72.1 °F 70.0 °F 30.01 in SE 5.0 mph 10.0 mph 93 % 0.00 in
23:03 72.1 °F 70.0 °F 30.01 in SE 4.0 mph 9.0 mph 93 % 0.00 in
23:08 72.1 °F 70.0 °F 30.01 in SSE 5.0 mph 9.0 mph 93 % 0.00 in
23:13 72.1 °F 70.0 °F 30.01 in South 5.0 mph 9.0 mph 93 % 0.00 in
23:18 72.1 °F 70.0 °F 30.01 in SSW 3.0 mph 9.0 mph 93 % 0.00 in
23:23 72.1 °F 70.0 °F 30.01 in South 2.0 mph 7.0 mph 93 % 0.00 in
23:28 72.1 °F 70.0 °F 30.01 in SSE 3.0 mph 7.0 mph 93 % 0.00 in
23:33 72.1 °F 70.0 °F 30.01 in South 4.0 mph 7.0 mph 93 % 0.00 in
23:38 72.1 °F 70.0 °F 30.00 in East 3.0 mph 7.0 mph 93 % 0.00 in
23:43 72.1 °F 70.0 °F 30.00 in SSE 2.0 mph 7.0 mph 93 % 0.00 in
23:48 72.1 °F 70.0 °F 30.00 in SSE 4.0 mph 6.0 mph 93 % 0.00 in
23:53 72.1 °F 70.0 °F 30.00 in SSW 4.0 mph 7.0 mph 93 % 0.00 in
23:59 72.1 °F 70.0 °F 30.00 in South 2.0 mph 7.0 mph 93 % 0.00 in
Spring, Texas: Villages of Bridgestone
Compliments of Weather Underground - 2.75 mb

Script developed by  Jim McMurry - jmcmurry@mwt.net Adapted for the template by  Wim van der Kuil - Leuven-Template.eu

You find our weather info also at:

UK Metoffice

WeatherCloud

Weather Underground

Mid-South Weather Network

AWEKAS

Citizen Weather Observer Program (CWOP)

HAMweather, WeatherForYou, PWS Weather

Equipment we use:

Weather-station
Davis Vantage Vue

Weather-program
Meteohub

Weather-server
Debian 7.9 x86 (Guest)

Provider
DreamHost

Davis Vantage Vue

Meteohub

Debian 7.9 x86 (Guest)

DreamHost